Time;durP1;ratioP1;P1;durP2;ratioP2;P2;SDS_P1;SDS_P2;PMS_P1;PMS_P2;Temp;Humidity;BMP_temperature;BMP_pressure;BME280_temperature;BME280_humidity;BME280_pressure;Samples;Min_cycle;Max_cycle;Signal;HPM_P1;HPM_P2
2022/06/28 00:00:35;;;;;;;5.47;3.95;;;;;;;14.82;79.82;101826.38;3574206;40;20053;-63
2022/06/28 00:03:00;;;;;;;6.30;3.97;;;;;;;14.75;79.78;101833.16;3567241;40;20057;-64
2022/06/28 00:05:26;;;;;;;5.80;4.20;;;;;;;14.73;79.84;101835.06;3565757;40;20079;-64
2022/06/28 00:07:52;;;;;;;4.50;4.07;;;;;;;14.70;79.06;101823.56;3571780;40;20084;-64
2022/06/28 00:10:18;;;;;;;4.32;3.95;;;;;;;14.68;79.74;101822.78;3567758;40;20056;-64
2022/06/28 00:12:43;;;;;;;5.35;4.22;;;;;;;14.55;79.76;101807.31;3568640;40;20115;-63
2022/06/28 00:17:57;;;;;;;8.35;4.55;;;;;;;14.54;80.17;101826.38;3570358;40;20063;-63
2022/06/28 00:20:23;;;;;;;5.47;4.47;;;;;;;14.51;79.90;101832.84;3566976;40;20101;-62
2022/06/28 00:22:49;;;;;;;5.00;4.00;;;;;;;14.46;80.74;101823.22;3568236;40;20058;-62
2022/06/28 00:25:15;;;;;;;5.00;4.50;;;;;;;14.24;80.69;101799.34;3565799;40;20281;-64
2022/06/28 00:27:41;;;;;;;7.72;4.63;;;;;;;14.31;80.52;101817.81;3567295;40;20060;-62
2022/06/28 00:30:08;;;;;;;6.57;4.78;;;;;;;14.24;80.54;101820.97;3569590;40;20049;-62
2022/06/28 00:32:34;;;;;;;9.68;4.82;;;;;;;14.29;80.58;101835.09;3571861;40;20061;-62
2022/06/28 00:35:01;;;;;;;5.45;4.63;;;;;;;14.24;80.99;101838.09;3570372;40;20179;-63
2022/06/28 00:37:27;;;;;;;4.72;4.25;;;;;;;14.13;81.16;101819.81;3560968;40;20069;-63
2022/06/28 00:39:53;;;;;;;7.13;4.38;;;;;;;14.21;81.01;101840.09;3566034;40;20810;-64
2022/06/28 00:42:19;;;;;;;5.22;4.40;;;;;;;14.18;80.87;101833.06;3569100;40;20052;-63
2022/06/28 00:44:46;;;;;;;6.88;4.53;;;;;;;14.20;80.70;101841.94;3559779;40;20064;-64
2022/06/28 00:47:14;;;;;;;7.63;4.28;;;;;;;14.17;80.70;101834.88;3571265;40;20325;-65
2022/06/28 00:49:42;;;;;;;6.35;4.32;;;;;;;14.17;81.17;101845.69;3570400;40;20061;-63
2022/06/28 00:52:11;;;;;;;4.90;4.40;;;;;;;14.15;80.73;101849.47;3569532;40;20067;-64
2022/06/28 00:54:38;;;;;;;5.32;4.82;;;;;;;14.14;80.92;101847.72;3570116;40;20118;-64
2022/06/28 00:57:05;;;;;;;6.18;5.13;;;;;;;14.12;81.18;101845.13;3566849;40;20057;-64
2022/06/28 00:59:31;;;;;;;5.43;4.55;;;;;;;14.08;80.80;101845.38;3569797;40;20367;-64
2022/06/28 01:01:58;;;;;;;7.60;4.95;;;;;;;14.07;81.15;101844.50;3571843;40;20069;-64
2022/06/28 01:04:24;;;;;;;7.75;5.50;;;;;;;14.04;81.59;101847.41;3569985;40;20048;-63
2022/06/28 01:06:51;;;;;;;5.05;4.53;;;;;;;14.00;81.24;101845.84;3569772;40;20069;-63
2022/06/28 01:09:16;;;;;;;7.70;4.93;;;;;;;13.97;81.08;101846.03;3570492;40;20064;-63
2022/06/28 01:11:42;;;;;;;6.05;4.90;;;;;;;13.94;81.19;101846.22;3570420;40;20064;-63
2022/06/28 01:14:08;;;;;;;8.07;5.15;;;;;;;13.91;80.99;101841.00;3570763;40;20053;-64
2022/06/28 01:16:36;;;;;;;7.95;5.30;;;;;;;13.87;81.21;101839.44;3570568;40;20053;-63
2022/06/28 01:19:05;;;;;;;6.07;4.90;;;;;;;13.89;80.98;101842.91;3565875;40;20093;-63
2022/06/28 01:21:35;;;;;;;5.10;4.60;;;;;;;13.88;81.55;101849.28;3570706;40;20048;-63
2022/06/28 01:24:01;;;;;;;7.20;4.72;;;;;;;13.84;80.67;101851.31;3574565;40;20122;-64
2022/06/28 01:26:27;;;;;;;6.28;4.68;;;;;;;13.84;80.84;101851.31;3572689;40;20085;-63
2022/06/28 01:28:53;;;;;;;6.85;5.10;;;;;;;13.83;80.73;101852.28;3568763;40;20060;-64
2022/06/28 01:31:22;;;;;;;8.07;5.32;;;;;;;13.69;80.71;101823.34;3572027;40;20106;-63
2022/06/28 01:33:51;;;;;;;7.30;5.35;;;;;;;13.84;80.71;101856.69;3576524;40;21383;-64
2022/06/28 01:36:17;;;;;;;7.68;4.78;;;;;;;13.80;80.60;101855.16;3570782;40;20060;-64
2022/06/28 01:38:43;;;;;;;6.30;5.15;;;;;;;13.79;80.35;101857.94;3569991;40;20427;-63
2022/06/28 01:43:56;;;;;;;5.78;5.05;;;;;;;13.79;80.35;101860.63;3573990;40;20059;-63
2022/06/28 01:46:23;;;;;;;6.30;5.03;;;;;;;13.79;80.62;101861.50;3576263;40;20525;-63
2022/06/28 01:48:48;;;;;;;7.72;5.30;;;;;;;13.73;80.31;101858.28;3571606;40;20092;-63
2022/06/28 01:51:14;;;;;;;8.52;5.15;;;;;;;13.72;80.25;101857.41;3573060;40;20059;-64
2022/06/28 01:53:39;;;;;;;6.28;4.95;;;;;;;13.74;79.92;101865.44;3574186;40;20068;-63
2022/06/28 01:56:05;;;;;;;5.43;4.93;;;;;;;13.72;80.28;101867.38;3573943;40;20055;-63
2022/06/28 01:58:31;;;;;;;9.80;5.10;;;;;;;13.69;80.20;101858.47;3569118;40;20084;-63
2022/06/28 02:00:57;;;;;;;7.90;5.22;;;;;;;13.65;80.18;101866.84;3572479;40;20052;-64
2022/06/28 02:03:23;;;;;;;6.75;5.00;;;;;;;13.48;80.18;101843.53;3571574;40;20059;-62
2022/06/28 02:05:49;;;;;;;9.15;5.20;;;;;;;13.60;80.55;101861.69;3569043;40;20409;-62
2022/06/28 02:08:14;;;;;;;10.05;5.68;;;;;;;13.57;80.58;101869.97;3568491;40;20115;-62
2022/06/28 02:10:40;;;;;;;7.40;5.13;;;;;;;13.53;79.84;101863.03;3571168;40;20096;-63
2022/06/28 02:13:06;;;;;;;5.97;4.70;;;;;;;13.49;80.47;101864.16;3565363;40;20085;-63
2022/06/28 02:15:31;;;;;;;7.03;4.55;;;;;;;13.45;80.50;101868.00;3573353;40;20407;-63
2022/06/28 02:17:59;;;;;;;7.85;4.95;;;;;;;13.48;80.16;101865.13;3567518;40;20064;-63
2022/06/28 02:20:25;;;;;;;7.57;4.78;;;;;;;13.46;80.57;101880.53;3570705;40;20079;-63
2022/06/28 02:22:51;;;;;;;5.40;4.60;;;;;;;13.44;80.16;101869.81;3570826;40;20049;-63
2022/06/28 02:25:17;;;;;;;6.68;4.93;;;;;;;13.42;80.21;101881.69;3570683;40;20367;-63
2022/06/28 02:27:43;;;;;;;7.70;4.78;;;;;;;13.40;80.35;101883.59;3575181;40;20248;-63
2022/06/28 02:30:11;;;;;;;5.22;4.68;;;;;;;13.40;80.31;101889.88;3559078;40;20057;-63
2022/06/28 02:32:36;;;;;;;5.05;4.45;;;;;;;13.36;80.38;101890.13;3568689;40;20060;-64
2022/06/28 02:40:31;;;;;;;5.75;5.00;;;;;;;13.25;80.58;101901.53;3564884;40;20154;-62
2022/06/28 02:43:00;;;;;;;7.18;4.25;;;;;;;13.21;80.93;101898.09;3566532;40;20403;-62
2022/06/28 02:45:30;;;;;;;9.52;4.70;;;;;;;13.01;80.53;101874.03;3565045;40;20061;-63
2022/06/28 02:47:57;;;;;;;7.32;4.43;;;;;;;13.07;80.09;101889.91;3569896;40;20426;-62
2022/06/28 02:50:23;;;;;;;8.90;4.55;;;;;;;13.15;79.81;101911.06;3571848;40;20285;-63
2022/06/28 02:52:49;;;;;;;7.10;4.00;;;;;;;13.10;80.02;101919.44;3569837;40;20706;-62
2022/06/28 02:55:15;;;;;;;10.63;4.53;;;;;;;13.07;80.00;101919.59;3564299;40;20060;-62
2022/06/28 02:57:41;;;;;;;8.82;4.28;;;;;;;13.07;80.16;101919.59;3563908;40;20141;-63
2022/06/28 03:00:13;;;;;;;7.80;4.30;;;;;;;13.06;80.10;101928.63;3570427;40;20053;-63
2022/06/28 03:02:41;;;;;;;7.82;4.22;;;;;;;13.02;80.18;101927.94;3567789;40;20057;-63
2022/06/28 03:05:10;;;;;;;5.68;4.65;;;;;;;12.96;80.41;101917.47;3566875;40;20097;-63
2022/06/28 03:07:36;;;;;;;8.15;4.72;;;;;;;12.95;80.50;101922.97;3571753;40;20049;-63
2022/06/28 03:10:04;;;;;;;7.15;4.53;;;;;;;12.94;80.55;101932.00;3580472;40;20465;-64
2022/06/28 03:12:30;;;;;;;10.27;4.38;;;;;;;12.91;80.82;101935.75;3573317;40;20092;-63
2022/06/28 03:14:56;;;;;;;6.18;4.13;;;;;;;12.88;80.88;101935.06;3578535;40;20059;-63
2022/06/28 03:17:21;;;;;;;6.93;4.72;;;;;;;12.85;81.15;101935.22;3577327;40;20083;-63
2022/06/28 03:19:47;;;;;;;5.43;4.13;;;;;;;12.84;80.33;101939.72;3577447;40;20530;-63
2022/06/28 03:22:13;;;;;;;5.20;4.65;;;;;;;12.81;80.65;101936.31;3573283;40;20045;-63
2022/06/28 03:24:38;;;;;;;8.18;4.32;;;;;;;12.70;80.81;101921.56;3574352;40;20053;-62
2022/06/28 03:27:04;;;;;;;7.53;4.32;;;;;;;12.48;80.38;101892.16;3571528;40;20052;-63
2022/06/28 03:29:30;;;;;;;7.07;4.18;;;;;;;12.77;79.94;101941.00;3568925;40;20057;-63
2022/06/28 03:31:55;;;;;;;8.05;3.70;;;;;;;12.79;80.05;101952.59;3573109;40;20060;-63
2022/06/28 03:34:22;;;;;;;7.38;4.40;;;;;;;12.72;80.51;101940.41;3571786;40;20084;-63
2022/06/28 03:36:48;;;;;;;7.35;4.15;;;;;;;12.58;80.45;101922.22;3569908;40;20056;-63
2022/06/28 03:39:13;;;;;;;9.82;4.20;;;;;;;12.71;80.48;101950.28;3567199;40;20375;-63
2022/06/28 03:41:40;;;;;;;6.45;4.05;;;;;;;12.65;80.69;101949.75;3572228;40;20064;-63
2022/06/28 03:44:05;;;;;;;6.40;3.83;;;;;;;12.70;80.42;101956.66;3580192;40;20080;-64
2022/06/28 03:46:32;;;;;;;6.05;4.15;;;;;;;12.70;79.95;101959.34;3566207;40;20075;-64
2022/06/28 03:48:57;;;;;;;6.93;4.07;;;;;;;12.61;80.22;101949.03;3568806;40;20048;-63
2022/06/28 03:51:23;;;;;;;6.88;4.18;;;;;;;12.66;80.30;101963.16;3555874;40;20474;-63
2022/06/28 03:53:49;;;;;;;8.23;3.60;;;;;;;12.66;80.18;101959.59;3579867;40;20067;-64
2022/06/28 03:56:14;;;;;;;7.22;4.05;;;;;;;12.67;80.24;101964.91;3571891;40;20061;-64
2022/06/28 03:58:40;;;;;;;7.68;4.35;;;;;;;12.68;80.42;101961.25;3574313;40;20072;-64
2022/06/28 04:01:06;;;;;;;7.65;3.67;;;;;;;12.68;79.92;101954.97;3574314;40;20052;-63
2022/06/28 04:03:32;;;;;;;4.95;4.03;;;;;;;12.57;80.42;101938.50;3578936;40;20122;-64
2022/06/28 04:05:57;;;;;;;5.25;3.83;;;;;;;12.69;80.60;101962.13;3573388;40;20052;-64
2022/06/28 04:08:23;;;;;;;6.65;3.53;;;;;;;12.70;79.97;101964.75;3571477;40;20052;-64
2022/06/28 04:10:49;;;;;;;6.03;3.88;;;;;;;12.70;79.84;101964.75;3569832;40;20060;-64
2022/06/28 04:13:14;;;;;;;7.80;4.05;;;;;;;12.71;80.50;101957.50;3570501;40;20306;-64
2022/06/28 04:15:40;;;;;;;8.23;3.65;;;;;;;12.37;79.89;101912.56;3574284;40;20072;-64
2022/06/28 04:18:07;;;;;;;4.30;3.50;;;;;;;12.62;80.37;101944.50;3574206;40;20056;-64
2022/06/28 04:20:41;;;;;;;7.53;3.78;;;;;;;12.74;80.15;101963.63;3562623;40;20147;-64
2022/06/28 04:23:06;;;;;;;8.23;4.25;;;;;;;12.78;79.97;101959.81;3574312;40;20428;-64
2022/06/28 04:25:32;;;;;;;7.28;3.78;;;;;;;12.83;80.07;101964.09;3573155;40;20089;-64
2022/06/28 04:27:57;;;;;;;6.78;3.75;;;;;;;12.86;79.09;101955.84;3573210;40;20162;-64
2022/06/28 04:30:25;;;;;;;7.95;3.45;;;;;;;12.93;78.95;101968.03;3573021;40;20418;-64
2022/06/28 04:32:51;;;;;;;7.00;4.20;;;;;;;12.95;79.04;101975.09;3574806;40;20052;-64
2022/06/28 04:35:16;;;;;;;5.78;3.17;;;;;;;12.98;78.66;101964.16;3573621;40;20059;-64
2022/06/28 04:37:42;;;;;;;6.38;3.28;;;;;;;13.03;79.04;101961.19;3572879;40;20068;-64
2022/06/28 04:40:08;;;;;;;5.80;3.17;;;;;;;13.07;78.75;101957.38;3574004;40;20773;-64
2022/06/28 04:42:36;;;;;;;9.07;3.65;;;;;;;13.12;78.72;101966.09;3570860;40;20059;-64
2022/06/28 04:45:02;;;;;;;8.88;3.40;;;;;;;13.13;78.44;101959.75;3573207;40;20091;-63
2022/06/28 04:47:27;;;;;;;6.60;2.97;;;;;;;13.17;77.98;101958.63;3571052;40;20135;-64
2022/06/28 04:49:53;;;;;;;5.50;3.35;;;;;;;13.19;77.85;101956.72;3567750;40;20072;-63
2022/06/28 04:52:19;;;;;;;8.95;3.60;;;;;;;12.88;77.64;101895.44;3567619;40;20061;-64
2022/06/28 04:54:44;;;;;;;7.45;3.20;;;;;;;13.33;77.52;101957.81;3569699;40;20151;-63
2022/06/28 04:57:10;;;;;;;7.03;3.60;;;;;;;13.36;77.40;101969.31;3571356;40;20060;-64
2022/06/28 04:59:35;;;;;;;7.88;3.20;;;;;;;13.38;77.35;101951.22;3569571;40;20049;-64
2022/06/28 05:02:01;;;;;;;6.13;3.00;;;;;;;13.45;77.10;101962.56;3566754;40;20311;-64
2022/06/28 05:04:26;;;;;;;5.90;3.00;;;;;;;13.51;76.63;101966.72;3570586;40;20052;-63
2022/06/28 05:06:52;;;;;;;5.80;2.90;;;;;;;13.56;76.63;101976.31;3559687;40;20358;-63
2022/06/28 05:09:18;;;;;;;7.75;3.00;;;;;;;13.61;76.69;101974.22;3570688;40;20052;-63
2022/06/28 05:11:43;;;;;;;10.50;3.28;;;;;;;13.67;76.47;101978.44;3567639;40;20742;-63
2022/06/28 05:14:09;;;;;;;7.93;3.15;;;;;;;13.74;76.54;101981.66;3569445;40;20056;-63
2022/06/28 05:16:34;;;;;;;7.13;3.30;;;;;;;13.80;76.03;101984.00;3571358;40;20067;-64
2022/06/28 05:19:00;;;;;;;8.13;3.10;;;;;;;13.88;75.66;101976.31;3568253;40;20059;-63
2022/06/28 05:21:25;;;;;;;5.72;2.70;;;;;;;13.94;76.09;101978.66;3569027;40;20064;-63
2022/06/28 05:23:52;;;;;;;12.18;3.30;;;;;;;13.99;75.82;101978.44;3570583;40;20065;-63
2022/06/28 05:26:19;;;;;;;8.40;2.60;;;;;;;14.02;75.13;101971.00;3568899;40;20048;-63
2022/06/28 05:28:44;;;;;;;8.73;2.72;;;;;;;14.13;75.47;101973.94;3569664;40;20130;-63
2022/06/28 05:31:10;;;;;;;5.82;2.40;;;;;;;14.21;75.09;101968.09;3568445;40;20069;-63
2022/06/28 05:33:36;;;;;;;9.38;3.15;;;;;;;14.27;74.64;101969.53;3568079;40;20092;-64
2022/06/28 05:36:02;;;;;;;9.10;2.83;;;;;;;14.32;74.37;101968.31;3567638;40;20063;-64
2022/06/28 05:38:30;;;;;;;12.27;2.83;;;;;;;14.39;75.13;101963.41;3570816;40;20052;-63
2022/06/28 05:40:55;;;;;;;6.65;2.67;;;;;;;14.31;74.80;101936.84;3572810;40;20083;-64
2022/06/28 05:43:21;;;;;;;9.63;2.75;;;;;;;14.52;74.67;101958.16;3556311;40;20400;-64
2022/06/28 05:45:46;;;;;;;10.63;2.38;;;;;;;14.57;74.68;101956.94;3569535;40;20056;-64
2022/06/28 05:48:12;;;;;;;6.68;2.47;;;;;;;14.64;73.92;101957.44;3569705;40;20060;-62
2022/06/28 05:50:37;;;;;;;8.20;2.70;;;;;;;14.50;74.01;101920.38;3566671;40;20057;-64
2022/06/28 05:53:03;;;;;;;8.32;2.55;;;;;;;14.81;73.62;101956.38;3570716;40;20091;-64
2022/06/28 05:55:30;;;;;;;7.82;2.97;;;;;;;14.88;72.75;101949.66;3568047;40;20422;-64
2022/06/28 05:57:56;;;;;;;8.25;2.60;;;;;;;14.95;72.52;101948.28;3569657;40;20389;-64
2022/06/28 06:00:21;;;;;;;8.77;2.70;;;;;;;15.03;72.70;101943.28;3568463;40;20071;-63
2022/06/28 06:02:47;;;;;;;9.70;2.50;;;;;;;15.17;72.86;101944.25;3567454;40;20380;-63
2022/06/28 06:05:12;;;;;;;8.13;2.28;;;;;;;15.30;72.49;101953.31;3570266;40;20060;-63
2022/06/28 06:07:38;;;;;;;6.22;2.22;;;;;;;15.37;71.27;101949.25;3566268;40;21017;-63
2022/06/28 06:10:04;;;;;;;9.32;2.83;;;;;;;15.50;71.68;101952.91;3569840;40;20052;-62
2022/06/28 06:12:30;;;;;;;8.05;2.80;;;;;;;15.64;71.87;101951.16;3567951;40;20069;-63
2022/06/28 06:14:56;;;;;;;7.20;2.30;;;;;;;15.72;69.95;101956.97;3565253;40;20068;-63
2022/06/28 06:17:21;;;;;;;13.57;3.08;;;;;;;15.84;69.54;101958.88;3568267;40;20067;-63
2022/06/28 06:19:47;;;;;;;10.73;2.85;;;;;;;15.96;70.01;101962.63;3571037;40;20056;-63
2022/06/28 06:22:13;;;;;;;8.15;2.53;;;;;;;16.11;68.88;101956.19;3570668;40;20382;-63
2022/06/28 06:24:39;;;;;;;11.18;3.10;;;;;;;16.21;67.13;101959.16;3567263;40;20104;-63
2022/06/28 06:27:05;;;;;;;9.05;2.70;;;;;;;16.27;67.11;101950.59;3568142;40;20103;-62
2022/06/28 06:29:30;;;;;;;10.45;2.50;;;;;;;16.48;67.19;101965.38;3569692;40;20060;-63
2022/06/28 06:31:57;;;;;;;10.93;2.75;;;;;;;16.59;64.70;101971.94;3570550;40;20057;-62
2022/06/28 06:34:23;;;;;;;12.55;3.38;;;;;;;16.75;65.39;101978.09;3569961;40;20269;-63
2022/06/28 06:36:49;;;;;;;13.55;2.88;;;;;;;16.87;63.92;101971.81;3569825;40;20088;-63
2022/06/28 06:39:15;;;;;;;9.20;2.38;;;;;;;17.00;63.15;101976.34;3564974;40;20084;-63
2022/06/28 06:41:40;;;;;;;10.60;3.13;;;;;;;17.15;64.32;101983.41;3573921;40;20296;-63
2022/06/28 06:44:06;;;;;;;9.40;2.60;;;;;;;17.25;63.38;101975.47;3574541;40;20057;-63
2022/06/28 06:46:31;;;;;;;9.73;2.30;;;;;;;17.44;62.03;101981.31;3573011;40;20067;-63
2022/06/28 06:48:57;;;;;;;7.63;2.63;;;;;;;17.55;61.76;101973.25;3572361;40;20083;-63
2022/06/28 06:51:23;;;;;;;11.10;2.55;;;;;;;17.66;60.92;101966.16;3571125;40;20053;-63
2022/06/28 06:53:49;;;;;;;6.40;2.58;;;;;;;17.90;62.47;101977.13;3574146;40;20099;-64
2022/06/28 06:56:14;;;;;;;9.57;2.53;;;;;;;18.03;60.68;101978.81;3577129;40;20057;-63
2022/06/28 06:58:40;;;;;;;9.65;2.58;;;;;;;18.17;60.98;101985.91;3572224;40;20057;-63
2022/06/28 07:01:05;;;;;;;8.05;2.70;;;;;;;18.23;58.93;101980.00;3573237;40;20371;-63
2022/06/28 07:03:31;;;;;;;6.03;2.47;;;;;;;18.30;60.66;101986.75;3572343;40;20052;-63
2022/06/28 07:05:57;;;;;;;7.90;2.47;;;;;;;18.40;57.39;101986.03;3572063;40;20100;-63
2022/06/28 07:08:22;;;;;;;8.25;1.98;;;;;;;18.49;56.06;101985.31;3573723;40;20064;-63
2022/06/28 07:10:48;;;;;;;6.82;2.63;;;;;;;18.59;56.51;101990.94;3572331;40;20095;-63
2022/06/28 07:13:14;;;;;;;6.40;2.70;;;;;;;18.66;57.84;101998.50;3572154;40;20061;-63
2022/06/28 07:15:39;;;;;;;7.25;2.53;;;;;;;18.71;55.21;101998.13;3570882;40;20442;-63
2022/06/28 07:18:05;;;;;;;9.93;2.80;;;;;;;18.82;56.54;101987.31;3571108;40;20057;-63
2022/06/28 07:20:31;;;;;;;10.27;2.22;;;;;;;18.97;57.04;101980.69;3573943;40;20092;-63
2022/06/28 07:22:57;;;;;;;7.50;2.28;;;;;;;19.09;54.32;101984.25;3570258;40;20116;-63
2022/06/28 07:25:22;;;;;;;9.05;2.38;;;;;;;19.15;52.69;101981.06;3571961;40;20067;-64
2022/06/28 07:27:48;;;;;;;7.65;2.35;;;;;;;19.20;53.96;101972.53;3570586;40;20422;-63
2022/06/28 07:30:14;;;;;;;8.52;2.33;;;;;;;19.45;53.05;101985.06;3573033;40;20049;-63
2022/06/28 07:32:40;;;;;;;7.57;2.50;;;;;;;19.59;52.87;101987.50;3571217;40;20104;-64
2022/06/28 07:35:07;;;;;;;9.55;2.70;;;;;;;19.76;53.29;101979.81;3570685;40;20055;-64
2022/06/28 07:37:33;;;;;;;8.32;2.65;;;;;;;19.90;52.80;101985.03;3571786;40;20092;-64
2022/06/28 07:39:59;;;;;;;7.57;2.22;;;;;;;19.99;50.49;101984.25;3572702;40;20175;-64
2022/06/28 07:42:24;;;;;;;4.50;2.05;;;;;;;20.16;51.83;101986.44;3572467;40;20072;-65
2022/06/28 07:44:50;;;;;;;7.10;1.95;;;;;;;20.40;51.76;101985.38;3570207;40;20064;-64
2022/06/28 07:47:16;;;;;;;7.57;2.22;;;;;;;20.50;50.14;101983.59;3573990;40;20065;-64
2022/06/28 07:52:36;;;;;;;7.85;1.77;;;;;;;20.79;49.84;101991.16;3570562;40;20138;-64
2022/06/28 07:55:08;;;;;;;6.50;1.65;;;;;;;20.93;48.19;101992.69;3570545;40;20072;-64
2022/06/28 07:57:34;;;;;;;7.95;2.13;;;;;;;21.08;48.45;101983.16;3570147;40;20072;-64
2022/06/28 07:59:59;;;;;;;5.53;2.17;;;;;;;21.10;48.99;101982.03;3570717;40;20049;-64
2022/06/28 08:02:25;;;;;;;6.18;1.90;;;;;;;21.15;48.25;101986.22;3569535;40;20388;-63
2022/06/28 08:04:51;;;;;;;7.22;2.17;;;;;;;21.28;48.82;101978.63;3570525;40;20483;-63
2022/06/28 08:07:16;;;;;;;6.10;1.88;;;;;;;21.38;46.37;101971.41;3569543;40;20053;-63
2022/06/28 08:09:42;;;;;;;6.05;2.20;;;;;;;21.45;47.07;101978.06;3570970;40;20104;-64
2022/06/28 08:12:08;;;;;;;5.40;1.60;;;;;;;21.51;45.21;101974.75;3569330;40;20379;-63
2022/06/28 08:14:34;;;;;;;8.23;1.95;;;;;;;21.64;46.35;101979.13;3569160;40;20053;-64
2022/06/28 08:17:00;;;;;;;3.92;1.42;;;;;;;21.33;46.47;101880.63;3573383;40;20100;-64
2022/06/28 08:19:25;;;;;;;4.88;1.75;;;;;;;22.14;44.04;101973.63;3569708;40;20065;-63
2022/06/28 08:21:52;;;;;;;3.97;1.52;;;;;;;22.21;42.95;101969.34;3571367;40;20060;-64
2022/06/28 08:24:18;;;;;;;4.80;1.40;;;;;;;22.25;41.78;101968.03;3573202;40;20076;-64
2022/06/28 08:26:44;;;;;;;4.32;1.42;;;;;;;22.22;41.55;101957.38;3571916;40;20451;-64
2022/06/28 08:29:15;;;;;;;3.92;1.60;;;;;;;22.32;40.76;101960.97;3571125;40;20052;-63
2022/06/28 08:31:43;;;;;;;3.90;1.83;;;;;;;22.41;40.35;101959.25;3572809;40;20073;-64
2022/06/28 08:34:10;;;;;;;4.18;1.33;;;;;;;22.46;40.83;101949.59;3574505;40;20055;-64
2022/06/28 08:36:36;;;;;;;4.78;1.30;;;;;;;22.64;40.47;101955.19;3571954;40;20340;-62
2022/06/28 08:39:03;;;;;;;5.32;2.13;;;;;;;22.68;38.29;101936.59;3570951;40;20049;-65
2022/06/28 08:41:33;;;;;;;3.42;1.30;;;;;;;22.70;39.12;101940.88;3568953;40;20458;-65
2022/06/28 08:43:59;;;;;;;2.53;1.20;;;;;;;22.82;37.84;101952.56;3570702;40;20048;-64
2022/06/28 08:46:25;;;;;;;3.05;1.15;;;;;;;23.00;37.96;101935.38;3567887;40;20383;-65
2022/06/28 08:49:03;;;;;;;4.35;0.82;;;;;;;23.04;37.07;101939.56;3571207;40;20060;-65
2022/06/28 08:51:32;;;;;;;3.47;1.10;;;;;;;23.21;38.25;101938.75;3571488;40;20048;-64
2022/06/28 08:54:02;;;;;;;3.92;1.08;;;;;;;23.36;38.86;101942.75;3569123;40;20057;-63
2022/06/28 08:56:29;;;;;;;3.55;1.23;;;;;;;23.26;38.00;101917.22;3572370;40;20063;-63
2022/06/28 08:59:00;;;;;;;4.70;1.10;;;;;;;23.51;38.95;101934.03;3567731;40;20063;-65
2022/06/28 09:01:27;;;;;;;6.10;1.33;;;;;;;23.63;37.59;101938.28;3567184;40;20047;-65
2022/06/28 09:03:55;;;;;;;4.63;1.33;;;;;;;23.70;37.99;101916.59;3571788;40;20052;-65
2022/06/28 09:06:23;;;;;;;4.57;1.10;;;;;;;23.97;38.57;101945.91;3570280;40;20149;-66
2022/06/28 09:08:49;;;;;;;3.78;1.40;;;;;;;24.18;38.08;101935.47;3571845;40;20105;-64
2022/06/28 09:11:15;;;;;;;1.80;0.93;;;;;;;24.39;38.04;101942.53;3568567;40;20101;-64
2022/06/28 09:13:41;;;;;;;4.10;1.42;;;;;;;24.54;36.22;101944.56;3568680;40;20079;-63
2022/06/28 09:16:07;;;;;;;3.45;1.08;;;;;;;24.63;36.39;101940.03;3554643;40;20049;-65
2022/06/28 09:18:36;;;;;;;5.65;1.30;;;;;;;24.75;37.36;101926.88;3567939;40;20130;-63
2022/06/28 09:21:08;;;;;;;4.15;1.20;;;;;;;24.80;36.39;101921.75;3571054;40;20549;-65
2022/06/28 09:23:38;;;;;;;4.53;1.30;;;;;;;25.05;37.63;101920.00;3570533;40;20051;-63
2022/06/28 09:26:17;;;;;;;3.90;1.20;;;;;;;24.77;37.78;101864.34;3569554;40;20072;-63
2022/06/28 09:28:49;;;;;;;2.53;0.98;;;;;;;25.16;37.89;101917.03;3571726;40;20138;-64
2022/06/28 09:31:21;;;;;;;2.20;1.02;;;;;;;25.20;37.30;101912.06;3569743;40;20045;-65
2022/06/28 09:34:07;;;;;;;4.70;1.20;;;;;;;25.31;36.95;101909.03;3569518;40;20141;-63
2022/06/28 09:36:39;;;;;;;3.15;1.00;;;;;;;25.44;37.24;101914.06;3568466;40;20368;-64
2022/06/28 09:39:15;;;;;;;3.10;1.38;;;;;;;25.48;36.41;101898.94;3571574;40;20064;-64
2022/06/28 09:41:48;;;;;;;3.95;1.42;;;;;;;25.55;37.20;101905.50;3557923;40;20387;-65
2022/06/28 09:44:16;;;;;;;3.20;1.30;;;;;;;25.50;37.00;101891.38;3570060;40;20402;-65
2022/06/28 09:46:44;;;;;;;3.65;1.10;;;;;;;25.68;36.01;101911.38;3569124;40;20385;-66
2022/06/28 09:49:10;;;;;;;3.30;1.00;;;;;;;25.63;36.11;101907.41;3572133;40;20068;-64
2022/06/28 09:51:39;;;;;;;4.07;1.27;;;;;;;25.66;35.88;101899.69;3567888;40;20245;-64
2022/06/28 09:54:09;;;;;;;4.95;1.30;;;;;;;25.66;35.40;101890.56;3569115;40;20052;-64
2022/06/28 09:56:47;;;;;;;4.15;0.88;;;;;;;25.69;37.17;101884.72;3567955;40;20063;-64
2022/06/28 09:59:13;;;;;;;1.77;0.73;;;;;;;25.68;36.95;101881.06;3566521;40;20131;-63
2022/06/28 10:01:39;;;;;;;5.30;1.20;;;;;;;25.84;36.32;101887.69;3568581;40;20285;-64
2022/06/28 10:04:06;;;;;;;4.07;1.13;;;;;;;25.78;36.44;101883.69;3575790;40;20092;-63
2022/06/28 10:06:32;;;;;;;3.47;1.35;;;;;;;25.90;38.91;101881.50;3573165;40;20061;-64
2022/06/28 10:08:59;;;;;;;2.10;0.85;;;;;;;25.93;38.38;101882.03;3572595;40;20091;-64
2022/06/28 10:11:25;;;;;;;2.47;1.10;;;;;;;26.06;37.60;101876.00;3570043;40;20295;-64
2022/06/28 10:17:18;;;;;;;3.50;1.17;;;;;;;26.09;35.52;101886.69;3568833;40;20066;-63
2022/06/28 10:19:44;;;;;;;3.25;1.00;;;;;;;26.01;37.50;101875.69;3567996;40;20057;-63
2022/06/28 10:22:12;;;;;;;4.50;1.00;;;;;;;26.20;35.80;101874.47;3566178;40;20052;-64
2022/06/28 10:24:59;;;;;;;2.50;1.10;;;;;;;26.14;38.08;101845.72;3571082;40;20065;-64
2022/06/28 10:27:28;;;;;;;2.95;1.10;;;;;;;26.25;34.90;101882.22;3571821;40;20040;-64
2022/06/28 10:30:07;;;;;;;4.63;1.27;;;;;;;26.24;34.54;101873.09;3569625;40;20049;-64
2022/06/28 10:32:45;;;;;;;3.72;1.13;;;;;;;26.33;36.52;101862.94;3568544;40;20154;-63
2022/06/28 10:35:33;;;;;;;1.75;1.10;;;;;;;26.27;34.48;101877.41;3569335;40;20407;-64
2022/06/28 10:38:07;;;;;;;3.42;1.15;;;;;;;26.31;35.00;101863.09;3569336;40;20071;-63
2022/06/28 10:40:54;;;;;;;2.47;0.95;;;;;;;26.25;36.27;101851.91;3571995;40;20114;-64
2022/06/28 10:43:25;;;;;;;3.00;1.25;;;;;;;26.31;34.59;101841.03;3569962;40;20053;-64
2022/06/28 10:46:00;;;;;;;5.18;1.30;;;;;;;26.32;36.74;101839.13;3574432;40;20044;-64
2022/06/28 10:48:27;;;;;;;2.97;1.52;;;;;;;26.56;34.44;101839.16;3572266;40;20089;-64
2022/06/28 10:51:03;;;;;;;3.67;1.27;;;;;;;26.77;36.57;101834.97;3570674;40;20088;-64
2022/06/28 10:54:00;;;;;;;2.83;1.30;;;;;;;26.81;35.41;101837.19;3569169;40;20130;-64
2022/06/28 10:56:28;;;;;;;3.03;1.10;;;;;;;26.82;34.11;101827.88;3566063;40;20079;-65
2022/06/28 10:59:03;;;;;;;3.85;1.17;;;;;;;26.88;35.23;101820.78;3569366;40;20040;-65
2022/06/28 11:01:44;;;;;;;2.90;1.20;;;;;;;27.01;34.77;101825.72;3569148;40;20101;-64
2022/06/28 11:04:23;;;;;;;3.83;1.02;;;;;;;27.08;33.99;101838.66;3568313;40;20057;-67
2022/06/28 11:06:57;;;;;;;3.47;1.05;;;;;;;26.97;34.67;101822.47;3568917;40;20121;-64
2022/06/28 11:09:58;;;;;;;2.50;1.17;;;;;;;27.29;34.17;101826.16;3570656;40;20064;-65
2022/06/28 11:12:30;;;;;;;3.33;0.95;;;;;;;27.40;33.50;101820.22;3568109;40;20053;-65
2022/06/28 11:15:10;;;;;;;2.28;0.95;;;;;;;27.42;32.94;101815.38;3575220;40;20052;-64
2022/06/28 11:17:44;;;;;;;4.70;1.15;;;;;;;27.52;34.72;101812.38;3567620;40;20107;-64
2022/06/28 11:20:12;;;;;;;4.30;1.25;;;;;;;27.63;36.09;101809.22;3569733;40;20060;-65
2022/06/28 11:22:43;;;;;;;2.00;0.90;;;;;;;27.91;33.47;101812.31;3567321;40;20057;-64
2022/06/28 11:25:22;;;;;;;4.72;1.48;;;;;;;27.88;33.52;101812.69;3572225;40;20386;-64
2022/06/28 11:27:52;;;;;;;3.25;1.15;;;;;;;27.74;33.16;101803.25;3574603;40;20580;-64
2022/06/28 11:30:21;;;;;;;2.38;0.90;;;;;;;27.53;33.32;101803.94;3571746;40;20056;-64
2022/06/28 11:32:50;;;;;;;2.50;0.90;;;;;;;27.45;33.25;101801.22;3568414;40;20310;-64
2022/06/28 11:35:29;;;;;;;4.20;1.25;;;;;;;27.82;36.74;101785.78;3572555;40;20080;-64
2022/06/28 11:37:58;;;;;;;4.15;2.33;;;;;;;28.23;33.10;101788.19;3571349;40;20084;-65
2022/06/28 11:40:27;;;;;;;4.85;2.03;;;;;;;28.41;31.51;101769.34;3569223;40;20065;-64
2022/06/28 11:43:12;;;;;;;3.95;1.17;;;;;;;28.69;32.24;101777.00;3569383;40;20289;-65